sensor_id;sensor_type;location;lat;lon;timestamp;temperature;humidity
75838;SHT30;64480;52.040;113.502;2023-05-07T00:00:30;23.04;18.75
75838;SHT30;64480;52.040;113.502;2023-05-07T00:03:34;22.27;19.42
75838;SHT30;64480;52.040;113.502;2023-05-07T00:06:37;21.62;20.10
75838;SHT30;64480;52.040;113.502;2023-05-07T00:09:41;20.41;21.18
75838;SHT30;64480;52.040;113.502;2023-05-07T00:12:45;20.65;21.22
75838;SHT30;64480;52.040;113.502;2023-05-07T00:15:48;20.86;20.91
75838;SHT30;64480;52.040;113.502;2023-05-07T00:18:52;21.20;20.52
75838;SHT30;64480;52.040;113.502;2023-05-07T00:21:56;21.56;20.47
75838;SHT30;64480;52.040;113.502;2023-05-07T00:24:59;22.00;20.08
75838;SHT30;64480;52.040;113.502;2023-05-07T00:28:03;22.38;20.13
75838;SHT30;64480;52.040;113.502;2023-05-07T00:31:06;22.95;19.44
75838;SHT30;64480;52.040;113.502;2023-05-07T00:34:10;22.62;19.90
75838;SHT30;64480;52.040;113.502;2023-05-07T00:37:13;23.24;19.41
75838;SHT30;64480;52.040;113.502;2023-05-07T00:40:18;22.79;20.01
75838;SHT30;64480;52.040;113.502;2023-05-07T00:43:22;22.33;20.84
75838;SHT30;64480;52.040;113.502;2023-05-07T00:46:25;21.69;21.49
75838;SHT30;64480;52.040;113.502;2023-05-07T00:49:42;20.53;22.73
75838;SHT30;64480;52.040;113.502;2023-05-07T00:52:46;19.79;23.46
75838;SHT30;64480;52.040;113.502;2023-05-07T00:55:50;19.72;23.75
75838;SHT30;64480;52.040;113.502;2023-05-07T00:58:53;19.80;23.61
75838;SHT30;64480;52.040;113.502;2023-05-07T01:01:58;19.48;23.59
75838;SHT30;64480;52.040;113.502;2023-05-07T01:05:04;18.84;24.42
75838;SHT30;64480;52.040;113.502;2023-05-07T01:08:09;18.62;24.75
75838;SHT30;64480;52.040;113.502;2023-05-07T01:11:13;17.98;25.74
75838;SHT30;64480;52.040;113.502;2023-05-07T01:14:17;17.82;26.13
75838;SHT30;64480;52.040;113.502;2023-05-07T01:17:21;17.79;26.57
75838;SHT30;64480;52.040;113.502;2023-05-07T01:20:25;17.90;26.74
75838;SHT30;64480;52.040;113.502;2023-05-07T01:23:30;17.79;27.30
75838;SHT30;64480;52.040;113.502;2023-05-07T01:26:34;18.05;27.85
75838;SHT30;64480;52.040;113.502;2023-05-07T01:29:37;18.05;28.40
75838;SHT30;64480;52.040;113.502;2023-05-07T01:32:51;18.21;28.78
75838;SHT30;64480;52.040;113.502;2023-05-07T01:35:55;18.18;28.78
75838;SHT30;64480;52.040;113.502;2023-05-07T01:38:59;18.27;29.30
75838;SHT30;64480;52.040;113.502;2023-05-07T01:42:02;17.76;30.22
75838;SHT30;64480;52.040;113.502;2023-05-07T01:45:06;17.32;30.90
75838;SHT30;64480;52.040;113.502;2023-05-07T01:48:10;17.42;30.82
75838;SHT30;64480;52.040;113.502;2023-05-07T01:51:42;17.56;30.80
75838;SHT30;64480;52.040;113.502;2023-05-07T01:54:46;17.57;30.64
75838;SHT30;64480;52.040;113.502;2023-05-07T01:57:50;17.69;30.62
75838;SHT30;64480;52.040;113.502;2023-05-07T02:00:59;17.89;30.34
75838;SHT30;64480;52.040;113.502;2023-05-07T02:04:04;18.08;30.60
75838;SHT30;64480;52.040;113.502;2023-05-07T02:07:07;18.00;30.33
75838;SHT30;64480;52.040;113.502;2023-05-07T02:10:11;17.91;30.19
75838;SHT30;64480;52.040;113.502;2023-05-07T02:13:18;17.82;30.39
75838;SHT30;64480;52.040;113.502;2023-05-07T02:16:23;17.82;30.59
75838;SHT30;64480;52.040;113.502;2023-05-07T02:19:27;18.25;30.23
75838;SHT30;64480;52.040;113.502;2023-05-07T02:22:30;18.53;29.59
75838;SHT30;64480;52.040;113.502;2023-05-07T02:25:33;18.77;28.93
75838;SHT30;64480;52.040;113.502;2023-05-07T02:28:37;19.10;28.66
75838;SHT30;64480;52.040;113.502;2023-05-07T02:31:45;19.48;28.08
75838;SHT30;64480;52.040;113.502;2023-05-07T02:34:50;19.74;27.45
75838;SHT30;64480;52.040;113.502;2023-05-07T02:37:55;19.59;27.81
75838;SHT30;64480;52.040;113.502;2023-05-07T02:40:59;20.00;27.28
75838;SHT30;64480;52.040;113.502;2023-05-07T02:44:03;20.25;27.10
75838;SHT30;64480;52.040;113.502;2023-05-07T02:47:11;20.34;26.63
75838;SHT30;64480;52.040;113.502;2023-05-07T02:50:22;20.24;26.66
75838;SHT30;64480;52.040;113.502;2023-05-07T02:53:41;19.98;27.36
75838;SHT30;64480;52.040;113.502;2023-05-07T02:56:44;19.62;27.19
75838;SHT30;64480;52.040;113.502;2023-05-07T03:00:13;19.52;27.49
75838;SHT30;64480;52.040;113.502;2023-05-07T03:03:49;19.38;27.68
75838;SHT30;64480;52.040;113.502;2023-05-07T03:06:59;18.97;27.79
75838;SHT30;64480;52.040;113.502;2023-05-07T03:10:04;18.89;28.05
75838;SHT30;64480;52.040;113.502;2023-05-07T03:13:12;18.91;28.21
75838;SHT30;64480;52.040;113.502;2023-05-07T03:16:19;19.03;28.43
75838;SHT30;64480;52.040;113.502;2023-05-07T03:19:25;19.01;28.43
75838;SHT30;64480;52.040;113.502;2023-05-07T03:22:54;19.14;28.31
75838;SHT30;64480;52.040;113.502;2023-05-07T03:25:58;18.99;28.59
75838;SHT30;64480;52.040;113.502;2023-05-07T03:29:04;18.74;28.84
75838;SHT30;64480;52.040;113.502;2023-05-07T03:32:08;18.76;28.72
75838;SHT30;64480;52.040;113.502;2023-05-07T03:35:12;18.63;28.75
75838;SHT30;64480;52.040;113.502;2023-05-07T03:38:16;18.51;29.29
75838;SHT30;64480;52.040;113.502;2023-05-07T03:41:23;18.60;29.15
75838;SHT30;64480;52.040;113.502;2023-05-07T03:44:31;18.77;28.95
75838;SHT30;64480;52.040;113.502;2023-05-07T03:47:37;18.79;28.46
75838;SHT30;64480;52.040;113.502;2023-05-07T03:50:43;18.53;28.28
75838;SHT30;64480;52.040;113.502;2023-05-07T03:53:53;18.67;27.43
75838;SHT30;64480;52.040;113.502;2023-05-07T03:57:00;18.67;27.17
75838;SHT30;64480;52.040;113.502;2023-05-07T04:04:06;18.73;26.79
75838;SHT30;64480;52.040;113.502;2023-05-07T04:07:11;18.74;26.63
75838;SHT30;64480;52.040;113.502;2023-05-07T04:10:18;18.66;26.52
75838;SHT30;64480;52.040;113.502;2023-05-07T04:13:24;19.06;25.80
75838;SHT30;64480;52.040;113.502;2023-05-07T04:16:28;19.32;25.71
75838;SHT30;64480;52.040;113.502;2023-05-07T04:19:41;19.63;25.44
75838;SHT30;64480;52.040;113.502;2023-05-07T04:22:52;19.84;25.21
75838;SHT30;64480;52.040;113.502;2023-05-07T04:26:04;19.87;25.29
75838;SHT30;64480;52.040;113.502;2023-05-07T04:29:35;19.74;25.25
75838;SHT30;64480;52.040;113.502;2023-05-07T04:32:38;19.51;25.88
75838;SHT30;64480;52.040;113.502;2023-05-07T04:35:42;19.66;24.63
75838;SHT30;64480;52.040;113.502;2023-05-07T04:38:45;19.45;24.97
75838;SHT30;64480;52.040;113.502;2023-05-07T04:41:49;19.45;24.32
75838;SHT30;64480;52.040;113.502;2023-05-07T04:44:56;19.55;24.29
75838;SHT30;64480;52.040;113.502;2023-05-07T04:48:10;19.55;24.63
75838;SHT30;64480;52.040;113.502;2023-05-07T04:51:19;19.94;24.48
75838;SHT30;64480;52.040;113.502;2023-05-07T04:54:22;20.21;23.60
75838;SHT30;64480;52.040;113.502;2023-05-07T04:57:28;19.66;23.66
75838;SHT30;64480;52.040;113.502;2023-05-07T05:00:35;19.46;23.62
75838;SHT30;64480;52.040;113.502;2023-05-07T05:03:44;19.69;23.27
75838;SHT30;64480;52.040;113.502;2023-05-07T05:06:47;19.83;23.49
75838;SHT30;64480;52.040;113.502;2023-05-07T05:09:52;19.98;23.73
75838;SHT30;64480;52.040;113.502;2023-05-07T05:13:01;20.37;22.29
75838;SHT30;64480;52.040;113.502;2023-05-07T05:16:09;20.32;21.27
75838;SHT30;64480;52.040;113.502;2023-05-07T05:19:13;20.09;21.19
75838;SHT30;64480;52.040;113.502;2023-05-07T05:22:18;19.84;21.26
75838;SHT30;64480;52.040;113.502;2023-05-07T05:25:27;19.55;21.84
75838;SHT30;64480;52.040;113.502;2023-05-07T05:28:32;19.44;21.00
75838;SHT30;64480;52.040;113.502;2023-05-07T05:31:37;19.49;19.13
75838;SHT30;64480;52.040;113.502;2023-05-07T05:34:59;19.66;18.94
75838;SHT30;64480;52.040;113.502;2023-05-07T05:41:06;19.29;20.02
75838;SHT30;64480;52.040;113.502;2023-05-07T05:44:12;19.17;20.16
75838;SHT30;64480;52.040;113.502;2023-05-07T05:47:17;19.10;19.50
75838;SHT30;64480;52.040;113.502;2023-05-07T05:50:25;19.06;19.60
75838;SHT30;64480;52.040;113.502;2023-05-07T05:53:31;19.10;19.33
75838;SHT30;64480;52.040;113.502;2023-05-07T05:56:37;19.00;19.55
75838;SHT30;64480;52.040;113.502;2023-05-07T05:59:42;19.12;19.90
75838;SHT30;64480;52.040;113.502;2023-05-07T06:02:48;19.28;19.21
75838;SHT30;64480;52.040;113.502;2023-05-07T06:05:59;19.38;18.86
75838;SHT30;64480;52.040;113.502;2023-05-07T06:09:06;19.63;18.65
75838;SHT30;64480;52.040;113.502;2023-05-07T06:12:15;19.65;18.68
75838;SHT30;64480;52.040;113.502;2023-05-07T06:15:28;19.39;19.60
75838;SHT30;64480;52.040;113.502;2023-05-07T06:18:38;19.42;19.64
75838;SHT30;64480;52.040;113.502;2023-05-07T06:21:45;19.51;19.70
75838;SHT30;64480;52.040;113.502;2023-05-07T06:24:50;19.62;20.09
75838;SHT30;64480;52.040;113.502;2023-05-07T06:27:59;19.51;19.74
75838;SHT30;64480;52.040;113.502;2023-05-07T06:31:19;19.41;19.74
75838;SHT30;64480;52.040;113.502;2023-05-07T06:34:36;19.46;19.55
75838;SHT30;64480;52.040;113.502;2023-05-07T06:37:54;19.36;18.06
75838;SHT30;64480;52.040;113.502;2023-05-07T06:41:06;19.35;18.72
75838;SHT30;64480;52.040;113.502;2023-05-07T06:44:12;19.10;18.91
75838;SHT30;64480;52.040;113.502;2023-05-07T06:47:22;18.94;18.96
75838;SHT30;64480;52.040;113.502;2023-05-07T06:50:29;18.72;19.02
75838;SHT30;64480;52.040;113.502;2023-05-07T06:53:35;18.96;18.67
75838;SHT30;64480;52.040;113.502;2023-05-07T06:56:40;18.96;17.38
75838;SHT30;64480;52.040;113.502;2023-05-07T06:59:51;18.76;17.18
75838;SHT30;64480;52.040;113.502;2023-05-07T07:02:58;18.67;17.64
75838;SHT30;64480;52.040;113.502;2023-05-07T07:06:05;18.69;17.49
75838;SHT30;64480;52.040;113.502;2023-05-07T07:09:10;18.77;17.97
75838;SHT30;64480;52.040;113.502;2023-05-07T07:12:17;18.76;17.94
75838;SHT30;64480;52.040;113.502;2023-05-07T07:15:25;18.52;17.68
75838;SHT30;64480;52.040;113.502;2023-05-07T07:18:37;18.51;17.53
75838;SHT30;64480;52.040;113.502;2023-05-07T07:21:57;18.63;17.57
75838;SHT30;64480;52.040;113.502;2023-05-07T07:25:01;18.56;17.47
75838;SHT30;64480;52.040;113.502;2023-05-07T07:28:06;18.51;16.91
75838;SHT30;64480;52.040;113.502;2023-05-07T07:31:17;18.60;16.68
75838;SHT30;64480;52.040;113.502;2023-05-07T07:34:29;18.55;16.72
75838;SHT30;64480;52.040;113.502;2023-05-07T07:37:41;18.44;16.62
75838;SHT30;64480;52.040;113.502;2023-05-07T07:40:49;18.56;16.87
75838;SHT30;64480;52.040;113.502;2023-05-07T07:44:05;18.53;16.71
75838;SHT30;64480;52.040;113.502;2023-05-07T07:47:25;18.41;16.62
75838;SHT30;64480;52.040;113.502;2023-05-07T07:50:29;18.49;16.16
75838;SHT30;64480;52.040;113.502;2023-05-07T07:53:48;18.41;15.92
75838;SHT30;64480;52.040;113.502;2023-05-07T07:56:52;18.41;16.45
75838;SHT30;64480;52.040;113.502;2023-05-07T07:59:57;18.17;17.08
75838;SHT30;64480;52.040;113.502;2023-05-07T08:03:01;18.02;16.91
75838;SHT30;64480;52.040;113.502;2023-05-07T08:06:13;18.08;16.38
75838;SHT30;64480;52.040;113.502;2023-05-07T08:09:17;18.12;15.33
75838;SHT30;64480;52.040;113.502;2023-05-07T08:12:49;18.12;16.54
75838;SHT30;64480;52.040;113.502;2023-05-07T08:15:54;18.12;16.88
75838;SHT30;64480;52.040;113.502;2023-05-07T08:18:57;18.12;15.98
75838;SHT30;64480;52.040;113.502;2023-05-07T08:22:01;18.04;15.75
75838;SHT30;64480;52.040;113.502;2023-05-07T08:25:05;18.02;16.10
75838;SHT30;64480;52.040;113.502;2023-05-07T08:28:09;18.00;16.32
75838;SHT30;64480;52.040;113.502;2023-05-07T08:31:14;17.86;16.14
75838;SHT30;64480;52.040;113.502;2023-05-07T08:34:19;17.80;16.17
75838;SHT30;64480;52.040;113.502;2023-05-07T08:37:24;17.83;16.15
75838;SHT30;64480;52.040;113.502;2023-05-07T08:40:28;17.90;16.27
75838;SHT30;64480;52.040;113.502;2023-05-07T08:43:36;17.91;15.60
75838;SHT30;64480;52.040;113.502;2023-05-07T08:46:41;17.90;15.74
75838;SHT30;64480;52.040;113.502;2023-05-07T08:49:47;17.86;15.63
75838;SHT30;64480;52.040;113.502;2023-05-07T08:52:52;17.98;16.38
75838;SHT30;64480;52.040;113.502;2023-05-07T08:55:57;17.70;16.26
75838;SHT30;64480;52.040;113.502;2023-05-07T08:59:03;17.65;15.60
75838;SHT30;64480;52.040;113.502;2023-05-07T09:02:09;17.35;15.18
75838;SHT30;64480;52.040;113.502;2023-05-07T09:05:14;17.28;15.48
75838;SHT30;64480;52.040;113.502;2023-05-07T09:08:18;17.22;15.56
75838;SHT30;64480;52.040;113.502;2023-05-07T09:11:23;16.81;15.22
75838;SHT30;64480;52.040;113.502;2023-05-07T09:14:28;16.59;15.39
75838;SHT30;64480;52.040;113.502;2023-05-07T09:17:33;16.52;15.95
75838;SHT30;64480;52.040;113.502;2023-05-07T09:20:38;16.41;16.22
75838;SHT30;64480;52.040;113.502;2023-05-07T09:23:43;16.32;16.42
75838;SHT30;64480;52.040;113.502;2023-05-07T09:26:52;16.24;16.37
75838;SHT30;64480;52.040;113.502;2023-05-07T09:29:55;16.11;16.53
75838;SHT30;64480;52.040;113.502;2023-05-07T09:33:00;16.02;16.32
75838;SHT30;64480;52.040;113.502;2023-05-07T09:36:09;15.93;16.04
75838;SHT30;64480;52.040;113.502;2023-05-07T09:39:16;15.83;15.31
75838;SHT30;64480;52.040;113.502;2023-05-07T09:42:24;15.77;14.92
75838;SHT30;64480;52.040;113.502;2023-05-07T09:45:43;15.73;14.91
75838;SHT30;64480;52.040;113.502;2023-05-07T09:48:48;15.63;15.22
75838;SHT30;64480;52.040;113.502;2023-05-07T09:51:52;15.62;15.51
75838;SHT30;64480;52.040;113.502;2023-05-07T09:54:59;15.62;15.48
75838;SHT30;64480;52.040;113.502;2023-05-07T09:58:06;15.46;14.30
75838;SHT30;64480;52.040;113.502;2023-05-07T10:01:20;15.38;15.34
75838;SHT30;64480;52.040;113.502;2023-05-07T10:04:28;15.32;15.18
75838;SHT30;64480;52.040;113.502;2023-05-07T10:07:35;15.29;15.33
75838;SHT30;64480;52.040;113.502;2023-05-07T10:10:44;15.29;15.67
75838;SHT30;64480;52.040;113.502;2023-05-07T10:13:53;15.27;16.08
75838;SHT30;64480;52.040;113.502;2023-05-07T10:17:03;15.21;16.36
75838;SHT30;64480;52.040;113.502;2023-05-07T10:20:10;15.17;16.60
75838;SHT30;64480;52.040;113.502;2023-05-07T10:23:23;15.11;16.77
75838;SHT30;64480;52.040;113.502;2023-05-07T10:26:33;15.10;17.34
75838;SHT30;64480;52.040;113.502;2023-05-07T10:33:15;14.80;18.58
75838;SHT30;64480;52.040;113.502;2023-05-07T10:36:21;14.76;18.68
75838;SHT30;64480;52.040;113.502;2023-05-07T10:39:27;14.65;19.00
75838;SHT30;64480;52.040;113.502;2023-05-07T10:42:36;14.62;19.22
75838;SHT30;64480;52.040;113.502;2023-05-07T10:45:40;14.52;19.47
75838;SHT30;64480;52.040;113.502;2023-05-07T10:52:27;14.29;19.18
75838;SHT30;64480;52.040;113.502;2023-05-07T10:55:41;14.22;16.91
75838;SHT30;64480;52.040;113.502;2023-05-07T10:58:50;14.07;15.76
75838;SHT30;64480;52.040;113.502;2023-05-07T11:02:06;13.93;15.39
75838;SHT30;64480;52.040;113.502;2023-05-07T11:05:32;13.70;15.03
75838;SHT30;64480;52.040;113.502;2023-05-07T11:08:57;13.56;15.50
75838;SHT30;64480;52.040;113.502;2023-05-07T11:15:47;13.26;14.95
75838;SHT30;64480;52.040;113.502;2023-05-07T11:19:09;13.11;15.03
75838;SHT30;64480;52.040;113.502;2023-05-07T11:22:44;12.95;14.83
75838;SHT30;64480;52.040;113.502;2023-05-07T11:26:10;12.83;14.67
75838;SHT30;64480;52.040;113.502;2023-05-07T11:29:20;12.67;14.80
75838;SHT30;64480;52.040;113.502;2023-05-07T11:32:33;12.56;14.94
75838;SHT30;64480;52.040;113.502;2023-05-07T11:35:36;12.46;15.09
75838;SHT30;64480;52.040;113.502;2023-05-07T11:38:43;12.36;15.25
75838;SHT30;64480;52.040;113.502;2023-05-07T11:41:46;12.30;15.13
75838;SHT30;64480;52.040;113.502;2023-05-07T11:44:49;12.15;15.34
75838;SHT30;64480;52.040;113.502;2023-05-07T11:47:53;12.06;15.19
75838;SHT30;64480;52.040;113.502;2023-05-07T11:54:05;11.85;15.75
75838;SHT30;64480;52.040;113.502;2023-05-07T11:57:15;11.74;16.03
75838;SHT30;64480;52.040;113.502;2023-05-07T12:00:22;11.62;16.01
75838;SHT30;64480;52.040;113.502;2023-05-07T12:03:26;11.56;16.18
75838;SHT30;64480;52.040;113.502;2023-05-07T12:06:36;11.43;16.38
75838;SHT30;64480;52.040;113.502;2023-05-07T12:09:41;11.35;16.58
75838;SHT30;64480;52.040;113.502;2023-05-07T12:12:49;11.25;16.81
75838;SHT30;64480;52.040;113.502;2023-05-07T12:15:57;11.18;17.03
75838;SHT30;64480;52.040;113.502;2023-05-07T12:19:01;11.07;17.25
75838;SHT30;64480;52.040;113.502;2023-05-07T12:22:05;11.01;17.41
75838;SHT30;64480;52.040;113.502;2023-05-07T12:25:19;10.93;17.70
75838;SHT30;64480;52.040;113.502;2023-05-07T12:28:23;10.84;17.84
75838;SHT30;64480;52.040;113.502;2023-05-07T12:31:26;10.73;18.06
75838;SHT30;64480;52.040;113.502;2023-05-07T12:34:31;10.68;18.40
75838;SHT30;64480;52.040;113.502;2023-05-07T12:37:35;10.60;18.46
75838;SHT30;64480;52.040;113.502;2023-05-07T12:40:41;10.52;18.63
75838;SHT30;64480;52.040;113.502;2023-05-07T12:43:46;10.47;18.75
75838;SHT30;64480;52.040;113.502;2023-05-07T12:46:50;10.36;18.97
75838;SHT30;64480;52.040;113.502;2023-05-07T12:49:54;10.30;19.08
75838;SHT30;64480;52.040;113.502;2023-05-07T12:52:57;10.22;19.25
75838;SHT30;64480;52.040;113.502;2023-05-07T12:56:01;10.16;19.51
75838;SHT30;64480;52.040;113.502;2023-05-07T12:59:04;10.11;19.74
75838;SHT30;64480;52.040;113.502;2023-05-07T13:02:18;10.02;20.01
75838;SHT30;64480;52.040;113.502;2023-05-07T13:05:21;9.94;20.05
75838;SHT30;64480;52.040;113.502;2023-05-07T13:08:30;9.88;20.43
75838;SHT30;64480;52.040;113.502;2023-05-07T13:11:34;9.84;20.71
75838;SHT30;64480;52.040;113.502;2023-05-07T13:14:37;9.75;21.07
75838;SHT30;64480;52.040;113.502;2023-05-07T13:17:41;9.70;20.91
75838;SHT30;64480;52.040;113.502;2023-05-07T13:20:45;9.63;21.08
75838;SHT30;64480;52.040;113.502;2023-05-07T13:23:48;9.54;21.52
75838;SHT30;64480;52.040;113.502;2023-05-07T13:26:51;9.47;21.67
75838;SHT30;64480;52.040;113.502;2023-05-07T13:29:57;9.36;21.80
75838;SHT30;64480;52.040;113.502;2023-05-07T13:33:04;9.26;22.02
75838;SHT30;64480;52.040;113.502;2023-05-07T13:36:10;9.23;22.00
75838;SHT30;64480;52.040;113.502;2023-05-07T13:39:14;9.15;22.33
75838;SHT30;64480;52.040;113.502;2023-05-07T13:42:17;9.07;21.95
75838;SHT30;64480;52.040;113.502;2023-05-07T13:45:21;9.01;22.04
75838;SHT30;64480;52.040;113.502;2023-05-07T13:48:24;8.95;22.27
75838;SHT30;64480;52.040;113.502;2023-05-07T13:51:28;8.89;22.25
75838;SHT30;64480;52.040;113.502;2023-05-07T13:54:31;8.83;22.41
75838;SHT30;64480;52.040;113.502;2023-05-07T13:57:35;8.73;22.56
75838;SHT30;64480;52.040;113.502;2023-05-07T14:00:38;8.70;22.55
75838;SHT30;64480;52.040;113.502;2023-05-07T14:03:44;8.63;22.83
75838;SHT30;64480;52.040;113.502;2023-05-07T14:06:48;8.60;23.15
75838;SHT30;64480;52.040;113.502;2023-05-07T14:09:52;8.54;22.87
75838;SHT30;64480;52.040;113.502;2023-05-07T14:12:58;8.50;23.09
75838;SHT30;64480;52.040;113.502;2023-05-07T14:16:04;8.43;23.31
75838;SHT30;64480;52.040;113.502;2023-05-07T14:19:07;8.35;23.40
75838;SHT30;64480;52.040;113.502;2023-05-07T14:22:12;8.30;23.40
75838;SHT30;64480;52.040;113.502;2023-05-07T14:25:16;8.22;23.53
75838;SHT30;64480;52.040;113.502;2023-05-07T14:28:24;8.19;23.74
75838;SHT30;64480;52.040;113.502;2023-05-07T14:31:28;8.11;23.80
75838;SHT30;64480;52.040;113.502;2023-05-07T14:34:32;8.05;24.01
75838;SHT30;64480;52.040;113.502;2023-05-07T14:37:35;7.97;24.14
75838;SHT30;64480;52.040;113.502;2023-05-07T14:40:39;7.88;24.32
75838;SHT30;64480;52.040;113.502;2023-05-07T14:43:42;7.83;24.58
75838;SHT30;64480;52.040;113.502;2023-05-07T14:46:46;7.75;24.48
75838;SHT30;64480;52.040;113.502;2023-05-07T14:49:50;7.67;24.54
75838;SHT30;64480;52.040;113.502;2023-05-07T14:52:55;7.57;24.70
75838;SHT30;64480;52.040;113.502;2023-05-07T14:56:01;7.49;24.82
75838;SHT30;64480;52.040;113.502;2023-05-07T14:59:04;7.40;24.92
75838;SHT30;64480;52.040;113.502;2023-05-07T15:02:09;7.36;25.02
75838;SHT30;64480;52.040;113.502;2023-05-07T15:05:13;7.28;25.25
75838;SHT30;64480;52.040;113.502;2023-05-07T15:08:18;7.21;25.32
75838;SHT30;64480;52.040;113.502;2023-05-07T15:11:21;7.16;25.40
75838;SHT30;64480;52.040;113.502;2023-05-07T15:14:25;7.09;25.44
75838;SHT30;64480;52.040;113.502;2023-05-07T15:17:28;7.15;25.38
75838;SHT30;64480;52.040;113.502;2023-05-07T15:20:36;7.18;25.14
75838;SHT30;64480;52.040;113.502;2023-05-07T15:23:39;7.16;25.30
75838;SHT30;64480;52.040;113.502;2023-05-07T15:26:43;7.12;25.30
75838;SHT30;64480;52.040;113.502;2023-05-07T15:29:47;7.09;25.36
75838;SHT30;64480;52.040;113.502;2023-05-07T15:32:51;7.09;25.46
75838;SHT30;64480;52.040;113.502;2023-05-07T15:35:54;7.04;25.57
75838;SHT30;64480;52.040;113.502;2023-05-07T15:39:01;7.01;25.49
75838;SHT30;64480;52.040;113.502;2023-05-07T15:42:06;6.95;25.56
75838;SHT30;64480;52.040;113.502;2023-05-07T15:45:09;6.91;25.69
75838;SHT30;64480;52.040;113.502;2023-05-07T15:48:14;6.84;25.83
75838;SHT30;64480;52.040;113.502;2023-05-07T15:51:18;6.77;26.11
75838;SHT30;64480;52.040;113.502;2023-05-07T15:54:22;6.73;26.28
75838;SHT30;64480;52.040;113.502;2023-05-07T15:57:26;6.67;26.13
75838;SHT30;64480;52.040;113.502;2023-05-07T16:00:29;6.64;26.25
75838;SHT30;64480;52.040;113.502;2023-05-07T16:03:32;6.56;26.42
75838;SHT30;64480;52.040;113.502;2023-05-07T16:06:36;6.50;26.29
75838;SHT30;64480;52.040;113.502;2023-05-07T16:09:39;6.49;26.23
75838;SHT30;64480;52.040;113.502;2023-05-07T16:12:43;6.52;26.36
75838;SHT30;64480;52.040;113.502;2023-05-07T16:15:46;6.47;26.23
75838;SHT30;64480;52.040;113.502;2023-05-07T16:18:50;6.46;26.55
75838;SHT30;64480;52.040;113.502;2023-05-07T16:21:53;6.38;26.56
75838;SHT30;64480;52.040;113.502;2023-05-07T16:24:57;6.36;26.79
75838;SHT30;64480;52.040;113.502;2023-05-07T16:28:00;6.33;27.02
75838;SHT30;64480;52.040;113.502;2023-05-07T16:31:03;6.28;27.17
75838;SHT30;64480;52.040;113.502;2023-05-07T16:34:06;6.24;27.07
75838;SHT30;64480;52.040;113.502;2023-05-07T16:37:10;6.14;27.28
75838;SHT30;64480;52.040;113.502;2023-05-07T16:40:13;6.04;27.51
75838;SHT30;64480;52.040;113.502;2023-05-07T16:43:17;5.94;27.49
75838;SHT30;64480;52.040;113.502;2023-05-07T16:46:20;5.86;27.49
75838;SHT30;64480;52.040;113.502;2023-05-07T16:49:24;5.74;27.58
75838;SHT30;64480;52.040;113.502;2023-05-07T16:52:29;5.67;27.80
75838;SHT30;64480;52.040;113.502;2023-05-07T16:55:32;5.62;28.03
75838;SHT30;64480;52.040;113.502;2023-05-07T16:58:40;5.63;28.19
75838;SHT30;64480;52.040;113.502;2023-05-07T17:01:44;5.59;28.44
75838;SHT30;64480;52.040;113.502;2023-05-07T17:04:47;5.60;28.10
75838;SHT30;64480;52.040;113.502;2023-05-07T17:07:51;5.56;28.53
75838;SHT30;64480;52.040;113.502;2023-05-07T17:10:54;5.56;28.62
75838;SHT30;64480;52.040;113.502;2023-05-07T17:13:57;5.53;28.78
75838;SHT30;64480;52.040;113.502;2023-05-07T17:17:01;5.50;28.75
75838;SHT30;64480;52.040;113.502;2023-05-07T17:20:05;5.47;28.82
75838;SHT30;64480;52.040;113.502;2023-05-07T17:23:08;5.40;28.71
75838;SHT30;64480;52.040;113.502;2023-05-07T17:26:12;5.32;28.79
75838;SHT30;64480;52.040;113.502;2023-05-07T17:29:16;5.25;29.16
75838;SHT30;64480;52.040;113.502;2023-05-07T17:32:21;5.18;29.23
75838;SHT30;64480;52.040;113.502;2023-05-07T17:35:24;5.14;29.11
75838;SHT30;64480;52.040;113.502;2023-05-07T17:38:30;5.05;29.34
75838;SHT30;64480;52.040;113.502;2023-05-07T17:41:35;5.01;29.47
75838;SHT30;64480;52.040;113.502;2023-05-07T17:44:39;4.97;29.75
75838;SHT30;64480;52.040;113.502;2023-05-07T17:47:42;4.91;29.79
75838;SHT30;64480;52.040;113.502;2023-05-07T17:50:46;4.88;29.91
75838;SHT30;64480;52.040;113.502;2023-05-07T17:53:49;4.90;30.12
75838;SHT30;64480;52.040;113.502;2023-05-07T17:56:53;4.88;30.20
75838;SHT30;64480;52.040;113.502;2023-05-07T18:00:00;4.88;30.35
75838;SHT30;64480;52.040;113.502;2023-05-07T18:03:06;4.85;30.61
75838;SHT30;64480;52.040;113.502;2023-05-07T18:06:10;4.83;30.81
75838;SHT30;64480;52.040;113.502;2023-05-07T18:09:13;4.77;30.92
75838;SHT30;64480;52.040;113.502;2023-05-07T18:12:17;4.74;31.02
75838;SHT30;64480;52.040;113.502;2023-05-07T18:15:20;4.64;31.01
75838;SHT30;64480;52.040;113.502;2023-05-07T18:18:24;4.60;30.86
75838;SHT30;64480;52.040;113.502;2023-05-07T18:21:29;4.52;31.39
75838;SHT30;64480;52.040;113.502;2023-05-07T18:24:33;4.48;30.89
75838;SHT30;64480;52.040;113.502;2023-05-07T18:27:36;4.44;31.11
75838;SHT30;64480;52.040;113.502;2023-05-07T18:30:40;4.44;31.27
75838;SHT30;64480;52.040;113.502;2023-05-07T18:33:43;4.41;31.32
75838;SHT30;64480;52.040;113.502;2023-05-07T18:36:47;4.38;31.39
75838;SHT30;64480;52.040;113.502;2023-05-07T18:39:50;4.38;31.60
75838;SHT30;64480;52.040;113.502;2023-05-07T18:42:53;4.39;31.59
75838;SHT30;64480;52.040;113.502;2023-05-07T18:45:57;4.45;31.17
75838;SHT30;64480;52.040;113.502;2023-05-07T18:49:01;4.44;31.00
75838;SHT30;64480;52.040;113.502;2023-05-07T18:52:04;4.42;31.04
75838;SHT30;64480;52.040;113.502;2023-05-07T18:55:07;4.42;30.87
75838;SHT30;64480;52.040;113.502;2023-05-07T18:58:13;4.45;31.18
75838;SHT30;64480;52.040;113.502;2023-05-07T19:01:18;4.49;31.01
75838;SHT30;64480;52.040;113.502;2023-05-07T19:04:21;4.46;31.19
75838;SHT30;64480;52.040;113.502;2023-05-07T19:07:26;4.45;31.23
75838;SHT30;64480;52.040;113.502;2023-05-07T19:10:29;4.45;31.36
75838;SHT30;64480;52.040;113.502;2023-05-07T19:13:32;4.45;31.50
75838;SHT30;64480;52.040;113.502;2023-05-07T19:16:36;4.41;31.85
75838;SHT30;64480;52.040;113.502;2023-05-07T19:19:40;4.35;32.09
75838;SHT30;64480;52.040;113.502;2023-05-07T19:22:43;4.31;32.22
75838;SHT30;64480;52.040;113.502;2023-05-07T19:25:47;4.31;32.51
75838;SHT30;64480;52.040;113.502;2023-05-07T19:28:50;4.28;32.29